Time;durP1;ratioP1;P1;durP2;ratioP2;P2;SDS_P1;SDS_P2;PMS_P1;PMS_P2;Temp;Humidity;BMP_temperature;BMP_pressure;BME280_temperature;BME280_humidity;BME280_pressure;Samples;Min_cycle;Max_cycle;Signal;HPM_P1;HPM_P2
2021/03/28 00:03:21;;;;;;;14.27;3.40;;;;;;;;;;10485053;28;20206;-79
2021/03/28 00:08:24;;;;;;;13.90;3.33;;;;;;;;;;10488508;28;20230;-79
2021/03/28 00:13:28;;;;;;;12.90;3.37;;;;;;;;;;10485564;28;20241;-79
2021/03/28 00:18:31;;;;;;;12.60;2.90;;;;;;;;;;10494273;28;20213;-79
2021/03/28 00:23:42;;;;;;;15.77;3.43;;;;;;;;;;10487537;28;20243;-77
2021/03/28 00:28:45;;;;;;;11.00;3.30;;;;;;;;;;10481314;28;20606;-78
2021/03/28 00:33:57;;;;;;;16.00;3.43;;;;;;;;;;10488203;28;20217;-79
2021/03/28 00:38:59;;;;;;;13.60;3.50;;;;;;;;;;10492143;28;20206;-78
2021/03/28 00:44:07;;;;;;;14.00;3.60;;;;;;;;;;10485580;28;20202;-78
2021/03/28 00:49:10;;;;;;;15.73;3.50;;;;;;;;;;10490324;28;21018;-78
2021/03/28 00:54:14;;;;;;;13.60;3.37;;;;;;;;;;10482880;28;20656;-78
2021/03/28 00:59:19;;;;;;;13.37;3.50;;;;;;;;;;10484559;28;20213;-77
2021/03/28 01:04:37;;;;;;;16.47;3.80;;;;;;;;;;10493479;28;20219;-77
2021/03/28 01:09:51;;;;;;;18.60;3.97;;;;;;;;;;10477749;28;20494;-78
2021/03/28 01:15:00;;;;;;;12.83;3.30;;;;;;;;;;10488131;28;20241;-78
2021/03/28 01:20:29;;;;;;;15.87;3.63;;;;;;;;;;10485796;28;20214;-77
2021/03/28 01:25:48;;;;;;;14.47;3.40;;;;;;;;;;10485602;28;20600;-78
2021/03/28 01:30:52;;;;;;;14.70;3.33;;;;;;;;;;10466009;28;20245;-78
2021/03/28 01:35:57;;;;;;;13.13;3.00;;;;;;;;;;10485797;28;20233;-78
2021/03/28 01:41:00;;;;;;;13.47;3.40;;;;;;;;;;10477443;28;20206;-78
2021/03/28 01:46:06;;;;;;;12.60;3.30;;;;;;;;;;10484131;28;20210;-78
2021/03/28 01:51:16;;;;;;;18.17;3.57;;;;;;;;;;10475777;28;20230;-78
2021/03/28 01:56:22;;;;;;;14.50;3.30;;;;;;;;;;10485120;28;20203;-79
2021/03/28 02:01:27;;;;;;;12.93;3.30;;;;;;;;;;10478830;28;20628;-78
2021/03/28 02:06:32;;;;;;;12.90;3.40;;;;;;;;;;10491713;28;20706;-78
2021/03/28 02:11:44;;;;;;;16.80;3.60;;;;;;;;;;10486050;28;20301;-78
2021/03/28 02:16:54;;;;;;;13.70;3.30;;;;;;;;;;10483181;28;20230;-78
2021/03/28 02:22:03;;;;;;;16.10;4.10;;;;;;;;;;10481606;28;23399;-79
2021/03/28 02:27:13;;;;;;;15.03;3.93;;;;;;;;;;10477297;28;20271;-78
2021/03/28 02:32:21;;;;;;;14.17;4.33;;;;;;;;;;10481449;28;20214;-78
2021/03/28 02:37:26;;;;;;;14.47;4.10;;;;;;;;;;10483686;28;20207;-77
2021/03/28 02:42:31;;;;;;;13.70;4.43;;;;;;;;;;10482927;28;20203;-78
2021/03/28 02:48:04;;;;;;;15.60;4.40;;;;;;;;;;10483879;28;20247;-78
2021/03/28 02:53:20;;;;;;;15.00;4.43;;;;;;;;;;10493577;28;20945;-78
2021/03/28 02:58:27;;;;;;;17.67;4.80;;;;;;;;;;10486324;28;20214;-77
2021/03/28 03:03:41;;;;;;;14.30;4.60;;;;;;;;;;10488952;28;20487;-78
2021/03/28 03:08:44;;;;;;;17.00;4.53;;;;;;;;;;10487472;28;20571;-78
2021/03/28 03:14:01;;;;;;;14.53;4.70;;;;;;;;;;10491323;28;20234;-77
2021/03/28 03:19:26;;;;;;;13.30;4.40;;;;;;;;;;10487579;28;20209;-77
2021/03/28 03:24:36;;;;;;;14.60;4.40;;;;;;;;;;10486453;28;20571;-78
2021/03/28 03:29:45;;;;;;;12.30;4.20;;;;;;;;;;10484647;28;20230;-77
2021/03/28 03:35:16;;;;;;;13.07;4.10;;;;;;;;;;10488978;28;20218;-78
2021/03/28 03:40:30;;;;;;;13.30;4.07;;;;;;;;;;10386847;28;20220;-77
2021/03/28 03:45:36;;;;;;;16.17;4.30;;;;;;;;;;10493751;28;20210;-78
2021/03/28 03:50:48;;;;;;;11.97;4.10;;;;;;;;;;10489591;28;20238;-77
2021/03/28 03:55:59;;;;;;;12.13;3.80;;;;;;;;;;10488835;28;20214;-78
2021/03/28 04:01:04;;;;;;;11.93;3.77;;;;;;;;;;10482642;28;20825;-77
2021/03/28 04:06:14;;;;;;;8.80;3.50;;;;;;;;;;10486098;28;20593;-78
2021/03/28 04:11:27;;;;;;;10.07;3.50;;;;;;;;;;10485954;28;20242;-78
2021/03/28 04:16:34;;;;;;;10.87;3.73;;;;;;;;;;10486334;28;20231;-78
2021/03/28 04:21:41;;;;;;;10.90;3.13;;;;;;;;;;10483515;28;20241;-77
2021/03/28 04:27:01;;;;;;;12.70;3.63;;;;;;;;;;10485069;28;20832;-78
2021/03/28 04:32:10;;;;;;;13.30;3.83;;;;;;;;;;10487683;28;20247;-78
2021/03/28 04:37:19;;;;;;;12.50;3.50;;;;;;;;;;10489650;28;20804;-78
2021/03/28 04:42:38;;;;;;;14.73;3.27;;;;;;;;;;10478985;28;21125;-78
2021/03/28 04:47:55;;;;;;;11.17;3.37;;;;;;;;;;10472556;28;20242;-78
2021/03/28 04:53:17;;;;;;;13.27;3.40;;;;;;;;;;10485688;28;20576;-76
2021/03/28 04:58:30;;;;;;;12.37;3.43;;;;;;;;;;10484408;28;20236;-77
2021/03/28 05:03:44;;;;;;;7.97;2.90;;;;;;;;;;10489371;28;20202;-77
2021/03/28 05:09:07;;;;;;;10.07;3.03;;;;;;;;;;10487983;28;20233;-78
2021/03/28 05:14:30;;;;;;;12.23;3.33;;;;;;;;;;10480184;28;20591;-76
2021/03/28 05:19:47;;;;;;;15.10;3.33;;;;;;;;;;10490387;28;20286;-77
2021/03/28 05:25:14;;;;;;;14.20;3.80;;;;;;;;;;10482059;28;20700;-77
2021/03/28 05:30:35;;;;;;;12.33;3.30;;;;;;;;;;10481889;28;20643;-78
2021/03/28 05:35:55;;;;;;;9.20;3.07;;;;;;;;;;10482970;28;20206;-77
2021/03/28 05:41:24;;;;;;;11.10;3.00;;;;;;;;;;10483590;28;20205;-77
2021/03/28 05:46:37;;;;;;;11.70;3.37;;;;;;;;;;10480018;28;20218;-77
2021/03/28 05:52:00;;;;;;;10.47;3.07;;;;;;;;;;10485757;28;20311;-78
2021/03/28 05:57:17;;;;;;;10.17;3.20;;;;;;;;;;10481296;28;20210;-77
2021/03/28 06:02:39;;;;;;;11.03;3.00;;;;;;;;;;10434953;28;20210;-78
2021/03/28 06:08:01;;;;;;;9.17;3.00;;;;;;;;;;10478171;28;20741;-78
2021/03/28 06:13:21;;;;;;;12.63;3.13;;;;;;;;;;10480537;28;20233;-77
2021/03/28 06:18:49;;;;;;;15.17;3.23;;;;;;;;;;10485987;28;20682;-77
2021/03/28 06:24:09;;;;;;;11.20;3.10;;;;;;;;;;10484466;28;20214;-78
2021/03/28 06:29:43;;;;;;;8.33;2.67;;;;;;;;;;10490215;28;20235;-77
2021/03/28 06:35:15;;;;;;;10.53;3.20;;;;;;;;;;10367237;28;20673;-77
2021/03/28 06:40:37;;;;;;;12.20;3.17;;;;;;;;;;10477504;28;20252;-78
2021/03/28 06:45:46;;;;;;;10.97;3.40;;;;;;;;;;10484229;28;20513;-78
2021/03/28 06:51:00;;;;;;;10.83;3.03;;;;;;;;;;10490080;28;20676;-77
2021/03/28 06:56:33;;;;;;;9.93;3.20;;;;;;;;;;10491633;28;20344;-78
2021/03/28 07:01:49;;;;;;;7.97;3.30;;;;;;;;;;10482522;28;20753;-77
2021/03/28 07:06:59;;;;;;;13.03;3.10;;;;;;;;;;10495054;28;20205;-78
2021/03/28 07:12:02;;;;;;;8.13;2.93;;;;;;;;;;10487283;28;20229;-78
2021/03/28 07:17:31;;;;;;;11.93;3.20;;;;;;;;;;10490930;28;20605;-77
2021/03/28 07:22:40;;;;;;;7.43;2.67;;;;;;;;;;10427728;28;20667;-77
2021/03/28 07:28:01;;;;;;;5.80;2.60;;;;;;;;;;10491900;28;20401;-78
2021/03/28 07:33:21;;;;;;;8.93;3.07;;;;;;;;;;10489259;28;20221;-78
2021/03/28 07:38:37;;;;;;;8.13;2.87;;;;;;;;;;10487478;28;20694;-78
2021/03/28 07:43:59;;;;;;;7.37;2.90;;;;;;;;;;10481881;28;20206;-79
2021/03/28 07:49:21;;;;;;;7.57;3.03;;;;;;;;;;10484715;28;20226;-77
2021/03/28 07:54:42;;;;;;;8.77;3.03;;;;;;;;;;10489783;28;20218;-77
2021/03/28 07:59:55;;;;;;;10.57;3.50;;;;;;;;;;10484366;28;20206;-77
2021/03/28 08:05:05;;;;;;;11.43;3.43;;;;;;;;;;10481529;28;20207;-78
2021/03/28 08:10:18;;;;;;;11.23;3.33;;;;;;;;;;10494093;28;20321;-82
2021/03/28 08:21:53;;;;;;;6.93;2.80;;;;;;;;;;10463403;28;20611;-77
2021/03/28 08:27:02;;;;;;;8.87;2.97;;;;;;;;;;10482683;28;20217;-77
2021/03/28 08:32:11;;;;;;;11.07;3.20;;;;;;;;;;10485495;28;20657;-78
2021/03/28 08:37:20;;;;;;;8.50;2.93;;;;;;;;;;10488687;28;20221;-77
2021/03/28 08:42:47;;;;;;;12.73;3.43;;;;;;;;;;10482618;28;20210;-79
2021/03/28 08:47:57;;;;;;;8.33;2.90;;;;;;;;;;10489006;28;20230;-78
2021/03/28 08:53:23;;;;;;;9.97;2.93;;;;;;;;;;10489662;28;20214;-79
2021/03/28 08:58:28;;;;;;;10.33;2.93;;;;;;;;;;10482462;28;20214;-78
2021/03/28 09:03:49;;;;;;;9.07;3.23;;;;;;;;;;10487688;28;20206;-79
2021/03/28 09:08:57;;;;;;;9.93;3.23;;;;;;;;;;10486430;28;20691;-79
2021/03/28 09:14:06;;;;;;;6.77;3.00;;;;;;;;;;10486503;28;20781;-78
2021/03/28 09:19:13;;;;;;;8.60;2.63;;;;;;;;;;10483004;28;20297;-79
2021/03/28 09:24:29;;;;;;;10.17;2.63;;;;;;;;;;10487328;28;20222;-79
2021/03/28 09:29:42;;;;;;;10.87;2.70;;;;;;;;;;10478326;28;20226;-78
2021/03/28 09:34:48;;;;;;;7.53;2.33;;;;;;;;;;10487858;28;20234;-79
2021/03/28 09:39:55;;;;;;;11.50;2.93;;;;;;;;;;10482022;28;20225;-79
2021/03/28 09:45:11;;;;;;;14.10;3.33;;;;;;;;;;10487421;28;20217;-78
2021/03/28 09:50:20;;;;;;;10.23;2.83;;;;;;;;;;10484495;28;20379;-79
2021/03/28 09:55:50;;;;;;;10.47;3.03;;;;;;;;;;10486575;28;20598;-79
2021/03/28 10:01:15;;;;;;;8.00;2.80;;;;;;;;;;10491168;28;20213;-79
2021/03/28 10:06:18;;;;;;;8.93;3.17;;;;;;;;;;10495886;28;20213;-79
2021/03/28 10:11:24;;;;;;;8.20;2.77;;;;;;;;;;10492006;28;20238;-78
2021/03/28 10:16:30;;;;;;;9.13;3.03;;;;;;;;;;10492829;28;20344;-79
2021/03/28 10:21:47;;;;;;;8.23;2.83;;;;;;;;;;10494744;28;20209;-79
2021/03/28 10:27:06;;;;;;;8.77;2.90;;;;;;;;;;10490489;28;20951;-79
2021/03/28 10:32:16;;;;;;;6.33;2.03;;;;;;;;;;10461515;28;20234;-79
2021/03/28 10:37:30;;;;;;;9.00;3.00;;;;;;;;;;10490753;28;20467;-78
2021/03/28 10:48:16;;;;;;;10.87;2.77;;;;;;;;;;10492391;28;20585;-80
2021/03/28 10:53:37;;;;;;;10.90;3.07;;;;;;;;;;10496654;28;20214;-78
2021/03/28 10:59:03;;;;;;;7.97;2.53;;;;;;;;;;10495333;28;20206;-80
2021/03/28 11:04:25;;;;;;;10.97;2.63;;;;;;;;;;10495219;28;20225;-79
2021/03/28 11:09:43;;;;;;;8.27;2.63;;;;;;;;;;10489634;28;20226;-77
2021/03/28 11:14:54;;;;;;;9.67;2.50;;;;;;;;;;10491425;28;20731;-77
2021/03/28 11:20:20;;;;;;;7.93;2.87;;;;;;;;;;10495831;28;20210;-77
2021/03/28 11:25:24;;;;;;;10.00;2.90;;;;;;;;;;10493271;28;20211;-78
2021/03/28 11:30:34;;;;;;;10.93;2.67;;;;;;;;;;10483546;28;20320;-80
2021/03/28 11:35:39;;;;;;;10.70;3.03;;;;;;;;;;10485936;28;20239;-79
2021/03/28 11:40:45;;;;;;;10.13;2.53;;;;;;;;;;10489454;28;20295;-82
2021/03/28 12:18:11;;;;;;;8.60;2.40;;;;;;;;;;10855962;22;20236;-75
2021/03/28 12:23:30;;;;;;;10.10;3.17;;;;;;;;;;10364321;28;20653;-76
2021/03/28 12:34:27;;;;;;;11.97;2.97;;;;;;;;;;10367854;28;20223;-89
2021/03/28 12:39:31;;;;;;;9.40;2.90;;;;;;;;;;10382316;28;20219;-87
2021/03/28 12:44:35;;;;;;;10.90;2.70;;;;;;;;;;10403103;22;20708;-82
2021/03/28 12:49:44;;;;;;;7.70;3.00;;;;;;;;;;10363486;22;20247;-83
2021/03/28 12:55:01;;;;;;;13.13;3.33;;;;;;;;;;10338344;28;20286;-84
2021/03/28 13:00:15;;;;;;;11.13;3.10;;;;;;;;;;10341298;28;20287;-85
2021/03/28 13:05:20;;;;;;;15.10;3.10;;;;;;;;;;10340900;28;20248;-83
2021/03/28 13:10:26;;;;;;;10.80;3.13;;;;;;;;;;10339457;28;20261;-83
2021/03/28 13:15:31;;;;;;;14.13;3.10;;;;;;;;;;10328342;28;20229;-84
2021/03/28 13:20:37;;;;;;;15.53;3.23;;;;;;;;;;10300234;28;20297;-84
2021/03/28 13:25:40;;;;;;;8.70;2.70;;;;;;;;;;10295475;28;20323;-84
2021/03/28 13:30:43;;;;;;;10.47;3.03;;;;;;;;;;10293097;28;20236;-84
2021/03/28 13:35:45;;;;;;;11.40;3.00;;;;;;;;;;10291207;28;20646;-86
2021/03/28 13:40:49;;;;;;;13.20;3.40;;;;;;;;;;10289306;28;20300;-84
2021/03/28 13:46:01;;;;;;;16.23;4.03;;;;;;;;;;10284194;28;20209;-87
2021/03/28 13:51:20;;;;;;;8.60;2.53;;;;;;;;;;10291921;28;20236;-85
2021/03/28 13:56:40;;;;;;;10.57;3.00;;;;;;;;;;10291066;28;20225;-85
2021/03/28 14:01:48;;;;;;;11.50;3.27;;;;;;;;;;10283571;28;20618;-84
2021/03/28 14:07:04;;;;;;;10.47;3.03;;;;;;;;;;10281857;28;20708;-84
2021/03/28 14:12:25;;;;;;;9.77;2.70;;;;;;;;;;10279098;28;20241;-83
2021/03/28 14:17:29;;;;;;;11.77;3.00;;;;;;;;;;10276654;28;20626;-83
2021/03/28 14:22:37;;;;;;;12.87;2.90;;;;;;;;;;10273939;28;20214;-84
2021/03/28 15:05:03;;;;;;;13.60;2.60;;;;;;;;;;10360445;28;20228;-79
2021/03/28 15:16:07;;;;;;;13.93;2.80;;;;;;;;;;10359358;28;20687;-78
2021/03/28 15:21:23;;;;;;;8.20;2.50;;;;;;;;;;10360662;28;20296;-78
2021/03/28 15:32:40;;;;;;;7.17;2.83;;;;;;;;;;10336245;22;20528;-80
2021/03/28 15:37:58;;;;;;;11.60;2.20;;;;;;;;;;10292154;28;20336;-82
2021/03/28 15:43:05;;;;;;;12.77;2.40;;;;;;;;;;10292831;28;20582;-79
2021/03/28 15:48:21;;;;;;;13.57;3.07;;;;;;;;;;10285589;28;20218;-80
2021/03/28 15:53:30;;;;;;;8.23;2.47;;;;;;;;;;10300274;28;20217;-81
2021/03/28 15:58:54;;;;;;;11.73;2.50;;;;;;;;;;10297916;28;20233;-80
2021/03/28 16:04:11;;;;;;;13.90;2.93;;;;;;;;;;10292844;28;20209;-81
2021/03/28 16:09:32;;;;;;;8.80;2.80;;;;;;;;;;10296345;28;20321;-80
2021/03/28 16:14:37;;;;;;;8.67;2.27;;;;;;;;;;10292249;28;20383;-80
2021/03/28 16:19:54;;;;;;;9.23;2.40;;;;;;;;;;10291711;28;20575;-80
2021/03/28 16:25:01;;;;;;;7.90;2.33;;;;;;;;;;10287769;28;20217;-81
2021/03/28 16:30:10;;;;;;;10.47;3.00;;;;;;;;;;10289906;28;20237;-83
2021/03/28 16:35:17;;;;;;;12.30;3.10;;;;;;;;;;10295565;28;20226;-82
2021/03/28 16:40:25;;;;;;;8.47;2.77;;;;;;;;;;10296140;28;20241;-83
2021/03/28 16:45:31;;;;;;;11.50;2.70;;;;;;;;;;10294869;28;20744;-82
2021/03/28 16:50:37;;;;;;;11.73;2.90;;;;;;;;;;10294709;28;20358;-83
2021/03/28 16:55:41;;;;;;;9.73;2.63;;;;;;;;;;10296408;28;20218;-81
2021/03/28 17:00:45;;;;;;;12.37;2.80;;;;;;;;;;10289446;28;20233;-80
2021/03/28 17:05:56;;;;;;;12.07;2.73;;;;;;;;;;10293846;28;20209;-81
2021/03/28 17:11:17;;;;;;;10.30;2.83;;;;;;;;;;10294082;28;20237;-81
2021/03/28 17:21:51;;;;;;;10.40;3.00;;;;;;;;;;10295790;28;20328;-83
2021/03/28 17:27:00;;;;;;;10.33;2.87;;;;;;;;;;10292366;28;22086;-81
2021/03/28 17:32:04;;;;;;;9.40;2.53;;;;;;;;;;10288631;28;20570;-82
2021/03/28 17:37:10;;;;;;;9.37;2.60;;;;;;;;;;10292502;28;20245;-82
2021/03/28 17:42:30;;;;;;;11.60;2.80;;;;;;;;;;10299949;28;20292;-81
2021/03/28 17:52:53;;;;;;;8.90;2.60;;;;;;;;;;2754937;22;20331;-85
